createdAt,value
2022-08-17T00:00:35.041Z,4.87
2022-08-17T00:03:06.305Z,5.60
2022-08-17T00:05:39.679Z,6.07
2022-08-17T00:08:07.710Z,5.70
2022-08-17T00:10:36.259Z,5.67
2022-08-17T00:13:07.716Z,6.10
2022-08-17T00:15:35.871Z,5.77
2022-08-17T00:19:02.014Z,5.80
2022-08-17T00:20:54.056Z,5.43
2022-08-17T00:23:22.440Z,5.27
2022-08-17T00:25:50.849Z,5.43
2022-08-17T00:28:20.964Z,6.10
2022-08-17T00:30:53.558Z,6.00
2022-08-17T00:33:26.826Z,6.27
2022-08-17T00:35:56.294Z,6.17
2022-08-17T00:38:26.040Z,5.60
2022-08-17T00:40:58.996Z,5.70
2022-08-17T00:43:31.596Z,6.07
2022-08-17T00:46:01.222Z,5.97
2022-08-17T00:48:31.185Z,5.87
2022-08-17T00:51:06.195Z,5.83
2022-08-17T00:53:37.456Z,5.80
2022-08-17T00:56:08.843Z,6.43
2022-08-17T00:58:38.440Z,6.17
2022-08-17T01:01:09.824Z,6.33
2022-08-17T01:03:41.522Z,6.70
2022-08-17T01:06:09.964Z,6.30
2022-08-17T01:08:40.489Z,6.80
2022-08-17T01:11:09.024Z,5.97
2022-08-17T01:13:41.220Z,5.50
2022-08-17T01:16:16.651Z,7.07
2022-08-17T01:18:49.085Z,6.30
2022-08-17T01:21:24.064Z,6.90
2022-08-17T01:23:53.304Z,5.93
2022-08-17T01:26:22.306Z,5.77
2022-08-17T01:28:55.440Z,5.57
2022-08-17T01:31:29.040Z,5.63
2022-08-17T01:33:59.465Z,5.60
2022-08-17T01:36:30.493Z,6.33
2022-08-17T01:39:00.132Z,6.23
2022-08-17T01:41:28.772Z,6.37
2022-08-17T01:44:02.444Z,6.67
2022-08-17T01:46:33.025Z,6.40
2022-08-17T01:49:01.798Z,6.73
2022-08-17T01:51:32.909Z,6.70
2022-08-17T01:54:06.121Z,6.63
2022-08-17T01:56:36.030Z,7.50
2022-08-17T01:59:08.878Z,7.57
2022-08-17T02:01:38.074Z,7.70
2022-08-17T02:04:08.475Z,7.10
2022-08-17T02:06:45.135Z,7.50
2022-08-17T02:09:17.278Z,7.33
2022-08-17T02:11:46.244Z,7.30
2022-08-17T02:14:14.920Z,7.23
2022-08-17T02:16:43.086Z,6.70
2022-08-17T02:19:15.638Z,6.90
2022-08-17T02:21:45.816Z,7.10
2022-08-17T02:25:00.026Z,7.57
2022-08-17T02:27:08.160Z,6.70
2022-08-17T02:29:36.292Z,6.60
2022-08-17T02:32:04.989Z,6.60
2022-08-17T02:34:33.348Z,5.70
2022-08-17T02:37:01.282Z,5.80
2022-08-17T02:39:30.567Z,6.20
2022-08-17T02:42:02.567Z,6.83
2022-08-17T02:44:40.010Z,6.70
2022-08-17T02:47:09.506Z,6.33
2022-08-17T02:49:38.356Z,5.83
2022-08-17T02:52:08.309Z,5.97
2022-08-17T02:54:41.123Z,5.57
2022-08-17T02:57:10.367Z,5.27
2022-08-17T02:59:38.336Z,5.87
2022-08-17T03:02:07.385Z,5.80
2022-08-17T03:04:35.617Z,5.60
2022-08-17T03:07:04.360Z,5.60
2022-08-17T03:09:32.400Z,5.67
2022-08-17T03:12:07.364Z,5.20
2022-08-17T03:14:41.417Z,5.10
2022-08-17T03:17:10.977Z,5.73
2022-08-17T03:19:44.869Z,5.87
2022-08-17T03:22:37.357Z,5.97
2022-08-17T03:25:00.724Z,6.47
2022-08-17T03:27:30.119Z,6.20
2022-08-17T03:29:57.994Z,6.43
2022-08-17T03:32:26.011Z,6.77
2022-08-17T03:35:00.163Z,6.93
2022-08-17T03:37:28.264Z,6.40
2022-08-17T03:39:56.350Z,7.50
2022-08-17T03:42:31.953Z,7.90
2022-08-17T03:45:03.453Z,7.80
2022-08-17T03:47:48.612Z,7.50
2022-08-17T03:50:35.791Z,7.03
2022-08-17T03:53:24.487Z,7.17
2022-08-17T03:56:09.745Z,7.43
2022-08-17T03:58:37.920Z,7.70
2022-08-17T04:01:08.180Z,7.60
2022-08-17T04:03:36.299Z,7.17
2022-08-17T04:06:05.578Z,7.73
2022-08-17T04:08:33.992Z,7.50
2022-08-17T04:11:02.548Z,6.87
2022-08-17T04:13:30.525Z,6.47
2022-08-17T04:15:59.229Z,6.77
2022-08-17T04:18:28.527Z,6.57
2022-08-17T04:20:56.788Z,6.27
2022-08-17T04:23:32.624Z,6.77
2022-08-17T04:26:00.582Z,6.53
2022-08-17T04:28:28.806Z,6.20
2022-08-17T04:30:56.716Z,6.63
2022-08-17T04:33:26.816Z,6.40
2022-08-17T04:35:58.376Z,6.20
2022-08-17T04:38:29.742Z,6.30
2022-08-17T04:41:15.884Z,6.57
2022-08-17T04:43:45.636Z,6.73
2022-08-17T04:46:15.771Z,6.47
2022-08-17T04:48:45.899Z,8.03
2022-08-17T04:51:18.084Z,7.40
2022-08-17T04:53:53.915Z,6.97
2022-08-17T04:56:25.045Z,6.77
2022-08-17T04:58:54.665Z,7.23
2022-08-17T05:01:24.813Z,6.80
2022-08-17T05:03:53.534Z,6.43
2022-08-17T05:06:23.563Z,18.97
2022-08-17T05:08:51.581Z,42.67
2022-08-17T05:11:20.047Z,15.60
2022-08-17T05:13:50.188Z,9.57
2022-08-17T05:16:19.563Z,12.70
2022-08-17T05:18:47.971Z,19.20
2022-08-17T05:21:16.189Z,14.07
2022-08-17T05:23:47.168Z,10.00
2022-08-17T05:26:26.283Z,10.67
2022-08-17T05:28:57.229Z,12.73
2022-08-17T05:31:28.657Z,8.37
2022-08-17T05:33:56.638Z,8.43
2022-08-17T05:36:41.808Z,7.67
2022-08-17T05:39:16.222Z,6.83
2022-08-17T05:41:46.887Z,6.93
2022-08-17T05:44:14.788Z,7.13
2022-08-17T05:46:46.599Z,7.60
2022-08-17T05:49:17.182Z,7.17
2022-08-17T05:52:20.051Z,7.10
2022-08-17T05:55:08.945Z,7.43
2022-08-17T05:57:53.258Z,8.00
2022-08-17T06:00:30.214Z,7.70
2022-08-17T06:03:18.117Z,7.77
2022-08-17T06:05:59.903Z,7.93
2022-08-17T06:08:37.211Z,7.17
2022-08-17T06:11:17.084Z,7.97
2022-08-17T06:14:04.100Z,7.13
2022-08-17T06:16:37.255Z,7.40
2022-08-17T06:19:12.559Z,7.63
2022-08-17T06:21:43.709Z,7.53
2022-08-17T06:24:24.418Z,7.53
2022-08-17T06:26:55.504Z,6.87
2022-08-17T06:29:37.251Z,6.97
2022-08-17T06:32:08.635Z,7.03
2022-08-17T06:34:38.392Z,6.90
2022-08-17T06:37:15.955Z,6.93
2022-08-17T06:39:54.108Z,7.63
2022-08-17T06:43:04.105Z,7.20
2022-08-17T06:45:28.753Z,6.20
2022-08-17T06:48:03.240Z,6.03
2022-08-17T06:50:36.785Z,6.73
2022-08-17T06:53:17.658Z,6.13
2022-08-17T06:55:49.837Z,6.80
2022-08-17T06:58:23.844Z,6.77
2022-08-17T07:01:00.989Z,6.60
2022-08-17T07:03:37.675Z,6.50
2022-08-17T07:06:12.295Z,6.77
2022-08-17T07:08:50.329Z,7.10
2022-08-17T07:11:23.083Z,6.57
2022-08-17T07:14:16.995Z,6.07
2022-08-17T07:16:48.318Z,5.70
2022-08-17T07:19:17.792Z,5.40
2022-08-17T07:21:55.023Z,6.10
2022-08-17T07:24:47.789Z,6.13
2022-08-17T07:27:21.259Z,5.70
2022-08-17T07:29:53.562Z,4.90
2022-08-17T07:32:26.397Z,5.23
2022-08-17T07:35:16.111Z,5.33
2022-08-17T07:37:49.118Z,5.27
2022-08-17T07:40:23.598Z,5.23
2022-08-17T07:43:19.935Z,5.40
2022-08-17T07:46:36.155Z,4.57
2022-08-17T07:49:33.788Z,5.03
2022-08-17T07:52:24.856Z,5.53
2022-08-17T07:54:52.756Z,4.83
2022-08-17T07:57:37.033Z,5.70
2022-08-17T08:00:27.276Z,5.67
2022-08-17T08:03:15.574Z,5.03
2022-08-17T08:05:52.657Z,5.23
2022-08-17T08:08:28.059Z,4.27
2022-08-17T08:11:03.636Z,4.97
2022-08-17T08:13:32.300Z,4.97
2022-08-17T08:16:25.570Z,5.20
2022-08-17T08:18:58.232Z,5.10
2022-08-17T08:21:36.748Z,5.00
2022-08-17T08:24:20.877Z,4.90
2022-08-17T08:26:58.057Z,4.83
2022-08-17T08:29:37.948Z,4.70
2022-08-17T08:32:19.384Z,4.70
2022-08-17T08:35:01.945Z,3.90
2022-08-17T08:37:44.830Z,4.30
2022-08-17T08:40:32.139Z,4.50
2022-08-17T08:43:12.470Z,4.80
2022-08-17T08:45:52.113Z,4.23
2022-08-17T08:48:53.101Z,4.40
2022-08-17T08:51:38.504Z,4.30
2022-08-17T08:54:14.986Z,3.73
2022-08-17T08:57:19.804Z,4.50
2022-08-17T08:59:57.723Z,3.90
2022-08-17T09:02:41.905Z,4.10
2022-08-17T09:05:19.636Z,5.20
2022-08-17T09:08:00.184Z,5.03
2022-08-17T09:10:31.828Z,4.57
2022-08-17T09:13:11.154Z,4.10
2022-08-17T09:15:44.068Z,4.10
2022-08-17T09:19:00.203Z,4.40
2022-08-17T09:21:11.614Z,4.57
2022-08-17T09:23:49.446Z,3.70
2022-08-17T09:26:23.029Z,4.77
2022-08-17T09:29:01.503Z,4.17
2022-08-17T09:31:35.467Z,4.67
2022-08-17T09:34:21.926Z,5.00
2022-08-17T09:37:04.579Z,4.83
2022-08-17T09:39:40.212Z,4.40
2022-08-17T09:42:16.971Z,4.40
2022-08-17T09:44:53.001Z,4.60
2022-08-17T09:47:31.705Z,4.87
2022-08-17T09:50:07.075Z,4.70
2022-08-17T09:52:36.130Z,5.43
2022-08-17T09:55:06.867Z,5.30
2022-08-17T09:57:55.504Z,5.37
2022-08-17T10:00:27.875Z,5.50
2022-08-17T10:03:08.343Z,5.60
2022-08-17T10:05:46.359Z,5.57
2022-08-17T10:08:25.617Z,5.50
2022-08-17T10:11:06.997Z,5.03
2022-08-17T10:13:53.108Z,4.63
2022-08-17T10:16:28.526Z,4.20
2022-08-17T10:19:07.220Z,4.13
2022-08-17T10:22:00.850Z,3.80
2022-08-17T10:25:01.902Z,4.30
2022-08-17T10:27:48.759Z,4.80
2022-08-17T10:30:19.712Z,5.40
2022-08-17T10:32:55.019Z,5.40
2022-08-17T10:35:34.033Z,4.87
2022-08-17T10:38:38.728Z,5.27
2022-08-17T10:41:28.212Z,5.37
2022-08-17T10:44:40.456Z,5.10
2022-08-17T10:47:04.830Z,5.20
2022-08-17T10:49:34.990Z,5.10
2022-08-17T10:52:08.051Z,5.00
2022-08-17T10:54:41.591Z,4.70
2022-08-17T10:57:36.181Z,4.63
2022-08-17T11:00:09.987Z,5.00
2022-08-17T11:02:49.454Z,5.50
2022-08-17T11:05:47.413Z,5.67
2022-08-17T11:08:40.706Z,5.20
2022-08-17T11:11:25.668Z,5.20
2022-08-17T11:14:06.228Z,6.70
2022-08-17T11:16:52.028Z,6.07
2022-08-17T11:19:43.421Z,5.97
2022-08-17T11:22:57.846Z,5.63
2022-08-17T11:25:35.463Z,5.50
2022-08-17T11:28:08.916Z,5.33
2022-08-17T11:30:48.443Z,5.70
2022-08-17T11:34:10.048Z,5.10
2022-08-17T11:37:11.272Z,5.60
2022-08-17T11:39:55.797Z,5.67
2022-08-17T11:42:38.602Z,5.67
2022-08-17T11:45:32.320Z,5.17
2022-08-17T11:48:28.425Z,5.70
2022-08-17T11:51:24.450Z,5.30
2022-08-17T11:54:32.238Z,4.90
2022-08-17T11:57:02.567Z,5.23
2022-08-17T12:00:00.446Z,5.80
2022-08-17T12:02:35.234Z,5.80
2022-08-17T12:05:27.437Z,5.57
2022-08-17T12:08:06.987Z,6.07
2022-08-17T12:10:49.292Z,5.73
2022-08-17T12:13:19.191Z,5.77
2022-08-17T12:15:50.353Z,6.20
2022-08-17T12:18:24.459Z,5.80
2022-08-17T12:21:13.343Z,6.33
2022-08-17T12:23:53.008Z,5.33
2022-08-17T12:26:27.334Z,5.77
2022-08-17T12:28:59.972Z,5.27
2022-08-17T12:31:33.623Z,5.23
2022-08-17T12:34:02.898Z,5.70
2022-08-17T12:36:32.928Z,5.40
2022-08-17T12:39:13.820Z,5.37
2022-08-17T12:41:47.475Z,5.00
2022-08-17T12:44:17.525Z,5.40
2022-08-17T12:46:56.010Z,5.43
2022-08-17T12:49:30.066Z,4.77
2022-08-17T12:52:06.784Z,5.70
2022-08-17T12:54:41.773Z,5.37
2022-08-17T12:57:15.533Z,5.03
2022-08-17T12:59:48.372Z,4.43
2022-08-17T13:02:42.510Z,5.37
2022-08-17T13:05:21.275Z,4.33
2022-08-17T13:07:49.558Z,4.23
2022-08-17T13:10:22.784Z,4.30
2022-08-17T13:12:53.549Z,4.40
2022-08-17T13:15:25.928Z,4.17
2022-08-17T13:18:08.800Z,4.63
2022-08-17T13:20:38.240Z,4.80
2022-08-17T13:23:12.406Z,3.93
2022-08-17T13:25:40.908Z,3.57
2022-08-17T13:28:35.682Z,4.30
2022-08-17T13:31:42.911Z,3.70
2022-08-17T13:34:35.775Z,4.43
2022-08-17T13:37:35.422Z,4.20
2022-08-17T13:40:31.640Z,4.20
2022-08-17T13:43:00.099Z,4.70
2022-08-17T13:45:50.686Z,5.00
2022-08-17T13:48:28.345Z,5.07
2022-08-17T13:51:13.969Z,4.53
2022-08-17T13:53:55.851Z,4.73
2022-08-17T13:56:38.205Z,4.80
2022-08-17T13:59:09.954Z,4.30
2022-08-17T14:01:39.917Z,4.50
2022-08-17T14:04:10.299Z,4.67
2022-08-17T14:06:53.969Z,4.50
2022-08-17T14:09:25.054Z,4.87
2022-08-17T14:11:56.271Z,4.73
2022-08-17T14:14:24.896Z,3.60
2022-08-17T14:16:53.252Z,4.00
2022-08-17T14:19:22.195Z,3.57
2022-08-17T14:21:50.948Z,3.80
2022-08-17T14:24:24.087Z,3.90
2022-08-17T14:26:54.492Z,3.77
2022-08-17T14:29:23.649Z,3.53
2022-08-17T14:31:54.128Z,3.43
2022-08-17T14:34:23.285Z,4.07
2022-08-17T14:36:52.800Z,3.93
2022-08-17T14:39:21.483Z,4.17
2022-08-17T14:41:49.756Z,4.13
2022-08-17T14:44:19.036Z,3.87
2022-08-17T14:46:47.979Z,3.77
2022-08-17T14:49:16.140Z,3.83
2022-08-17T14:51:44.721Z,3.70
2022-08-17T14:54:33.610Z,4.27
2022-08-17T14:57:23.652Z,3.90
2022-08-17T14:59:54.446Z,4.30
2022-08-17T15:02:29.726Z,4.10
2022-08-17T15:05:02.866Z,4.00
2022-08-17T15:07:31.389Z,3.17
2022-08-17T15:10:00.840Z,3.70
2022-08-17T15:12:33.098Z,4.23
2022-08-17T15:15:05.448Z,3.70
2022-08-17T15:17:45.080Z,4.23
2022-08-17T15:20:15.999Z,4.20
2022-08-17T15:22:45.771Z,4.00
2022-08-17T15:25:14.200Z,4.03
2022-08-17T15:27:42.718Z,4.17
2022-08-17T15:30:13.312Z,3.90
2022-08-17T15:32:50.856Z,3.37
2022-08-17T15:35:28.369Z,3.23
2022-08-17T15:37:58.237Z,4.00
2022-08-17T15:40:26.232Z,3.93
2022-08-17T15:42:54.442Z,3.77
2022-08-17T15:45:26.949Z,3.53
2022-08-17T15:47:55.003Z,3.60
2022-08-17T15:50:22.961Z,4.00
2022-08-17T15:52:56.930Z,3.37
2022-08-17T15:55:25.983Z,3.37
2022-08-17T15:57:54.145Z,4.00
2022-08-17T16:00:24.668Z,3.87
2022-08-17T16:03:14.864Z,3.37
2022-08-17T16:05:41.044Z,3.97
2022-08-17T16:08:10.973Z,3.83
2022-08-17T16:10:39.308Z,3.87
2022-08-17T16:13:17.413Z,3.30
2022-08-17T16:15:56.832Z,3.87
2022-08-17T16:18:31.043Z,3.63
2022-08-17T16:21:22.448Z,3.77
2022-08-17T16:23:52.839Z,3.23
2022-08-17T16:26:22.902Z,3.40
2022-08-17T16:28:51.421Z,3.73
2022-08-17T16:31:21.123Z,3.53
2022-08-17T16:34:15.684Z,3.70
2022-08-17T16:36:37.446Z,3.90
2022-08-17T16:39:05.468Z,3.83
2022-08-17T16:41:45.434Z,3.60
2022-08-17T16:44:15.730Z,3.30
2022-08-17T16:46:46.262Z,3.57
2022-08-17T16:49:31.559Z,3.80
2022-08-17T16:52:05.275Z,3.43
2022-08-17T16:54:33.433Z,3.33
2022-08-17T16:57:03.156Z,4.30
2022-08-17T16:59:40.289Z,4.07
2022-08-17T17:02:13.757Z,4.27
2022-08-17T17:04:49.126Z,3.67
2022-08-17T17:07:34.772Z,3.70
2022-08-17T17:10:08.429Z,4.07
2022-08-17T17:13:02.498Z,4.07
2022-08-17T17:15:41.417Z,3.97
2022-08-17T17:18:13.335Z,4.03
2022-08-17T17:20:48.883Z,3.80
2022-08-17T17:23:38.807Z,4.37
2022-08-17T17:26:28.325Z,3.77
2022-08-17T17:29:18.186Z,4.13
2022-08-17T17:31:54.501Z,3.40
2022-08-17T17:34:26.704Z,3.93
2022-08-17T17:36:59.799Z,4.20
2022-08-17T17:39:36.564Z,3.77
2022-08-17T17:42:10.024Z,4.23
2022-08-17T17:44:41.824Z,4.33
2022-08-17T17:47:10.577Z,4.23
2022-08-17T17:49:44.324Z,3.97
2022-08-17T17:52:21.569Z,4.10
2022-08-17T17:54:59.469Z,4.30
2022-08-17T17:57:39.320Z,4.40
2022-08-17T18:00:14.897Z,4.47
2022-08-17T18:02:55.730Z,4.50
2022-08-17T18:05:40.555Z,4.50
2022-08-17T18:08:19.110Z,4.67
2022-08-17T18:10:55.674Z,4.60
2022-08-17T18:13:35.066Z,4.33
2022-08-17T18:16:04.810Z,4.63
2022-08-17T18:18:39.264Z,4.03
2022-08-17T18:21:19.382Z,4.57
2022-08-17T18:23:48.712Z,4.53
2022-08-17T18:26:36.964Z,4.67
2022-08-17T18:29:17.874Z,4.47
2022-08-17T18:31:45.725Z,4.23
2022-08-17T18:34:46.036Z,4.50
2022-08-17T18:37:16.106Z,4.40
2022-08-17T18:39:47.434Z,5.07
2022-08-17T18:42:26.267Z,4.60
2022-08-17T18:44:55.769Z,4.50
2022-08-17T18:47:25.931Z,4.63
2022-08-17T18:49:57.658Z,4.40
2022-08-17T18:52:30.632Z,4.63
2022-08-17T18:55:08.541Z,4.53
2022-08-17T18:57:38.882Z,4.60
2022-08-17T19:00:13.986Z,4.90
2022-08-17T19:02:52.955Z,5.23
2022-08-17T19:05:32.040Z,5.93
2022-08-17T19:10:56.850Z,5.33
2022-08-17T19:13:30.634Z,5.50
2022-08-17T19:16:11.796Z,6.23
2022-08-17T19:18:47.385Z,6.23
2022-08-17T19:21:20.057Z,5.63
2022-08-17T19:23:54.579Z,5.37
2022-08-17T19:26:54.285Z,5.40
2022-08-17T19:29:23.311Z,5.40
2022-08-17T19:31:51.282Z,5.00
2022-08-17T19:34:32.353Z,5.30
2022-08-17T19:37:08.940Z,5.37
2022-08-17T19:39:45.542Z,5.37
2022-08-17T19:42:25.136Z,5.90
2022-08-17T19:45:02.973Z,5.60
2022-08-17T19:47:57.861Z,5.40
2022-08-17T19:50:38.345Z,5.30
2022-08-17T19:53:18.499Z,6.07
2022-08-17T19:56:01.082Z,6.50
2022-08-17T19:58:44.873Z,6.07
2022-08-17T20:01:17.812Z,5.20
2022-08-17T20:03:54.448Z,5.00
2022-08-17T20:06:23.332Z,5.27
2022-08-17T20:08:59.431Z,5.47
2022-08-17T20:11:33.966Z,5.53
2022-08-17T20:14:09.034Z,4.70
2022-08-17T20:16:36.916Z,5.17
2022-08-17T20:19:09.527Z,5.33
2022-08-17T20:21:45.923Z,5.60
2022-08-17T20:24:21.250Z,5.37
2022-08-17T20:26:58.428Z,5.57
2022-08-17T20:29:40.415Z,5.23
2022-08-17T20:32:19.783Z,4.83
2022-08-17T20:34:48.992Z,5.20
2022-08-17T20:37:30.867Z,7.30
2022-08-17T20:40:23.744Z,6.63
2022-08-17T20:42:51.592Z,6.30
2022-08-17T20:45:59.924Z,6.90
2022-08-17T20:48:38.907Z,6.63
2022-08-17T20:51:31.451Z,5.97
2022-08-17T20:54:35.000Z,5.40
2022-08-17T20:57:06.760Z,6.03
2022-08-17T21:00:14.067Z,5.60
2022-08-17T21:02:45.700Z,5.97
2022-08-17T21:05:38.359Z,6.00
2022-08-17T21:08:15.946Z,6.00
2022-08-17T21:10:46.413Z,5.47
2022-08-17T21:13:56.333Z,5.47
2022-08-17T21:16:36.287Z,5.70
2022-08-17T21:19:19.461Z,5.67
2022-08-17T21:21:59.282Z,5.63
2022-08-17T21:24:37.500Z,5.57
2022-08-17T21:27:20.455Z,6.00
2022-08-17T21:30:14.793Z,5.50
2022-08-17T21:32:45.919Z,5.47
2022-08-17T21:35:47.265Z,8.73
2022-08-17T21:38:16.851Z,5.97
2022-08-17T21:40:47.055Z,7.37
2022-08-17T21:43:23.377Z,7.10
2022-08-17T21:46:04.991Z,6.70
2022-08-17T21:48:42.631Z,5.93
2022-08-17T21:51:17.549Z,6.37
2022-08-17T21:53:49.530Z,5.73
2022-08-17T21:56:25.144Z,5.77
2022-08-17T21:58:59.169Z,5.57
2022-08-17T22:01:30.347Z,6.20
2022-08-17T22:04:02.126Z,6.30
2022-08-17T22:06:36.515Z,5.30
2022-08-17T22:09:17.471Z,5.47
2022-08-17T22:11:52.703Z,5.97
2022-08-17T22:14:22.811Z,5.10
2022-08-17T22:17:10.828Z,4.57
2022-08-17T22:19:40.594Z,4.23
2022-08-17T22:22:21.006Z,4.17
2022-08-17T22:24:56.887Z,4.17
2022-08-17T22:27:47.866Z,4.10
2022-08-17T22:30:27.786Z,4.70
2022-08-17T22:32:56.678Z,4.43
2022-08-17T22:35:37.122Z,4.47
2022-08-17T22:38:31.261Z,4.47
2022-08-17T22:41:31.950Z,4.27
2022-08-17T22:44:07.662Z,4.40
2022-08-17T22:46:40.660Z,4.50
2022-08-17T22:49:09.123Z,4.80
2022-08-17T22:51:38.023Z,4.63
2022-08-17T22:54:36.401Z,4.30
2022-08-17T22:57:32.001Z,4.27
2022-08-17T23:00:01.633Z,4.77
2022-08-17T23:02:32.167Z,5.07
2022-08-17T23:05:22.803Z,5.00
2022-08-17T23:07:53.665Z,5.27
2022-08-17T23:10:23.315Z,5.20
2022-08-17T23:12:51.305Z,5.10
2022-08-17T23:15:20.354Z,4.77
2022-08-17T23:17:48.239Z,4.70
2022-08-17T23:20:20.134Z,4.97
2022-08-17T23:22:52.577Z,4.20
2022-08-17T23:25:27.865Z,4.90
2022-08-17T23:27:57.387Z,5.13
2022-08-17T23:30:28.514Z,4.70
2022-08-17T23:32:56.844Z,4.87
2022-08-17T23:35:39.241Z,4.87
2022-08-17T23:38:09.937Z,4.53
2022-08-17T23:40:40.254Z,4.63
2022-08-17T23:43:24.425Z,4.27
2022-08-17T23:45:57.427Z,4.73
2022-08-17T23:48:35.666Z,4.77
2022-08-17T23:51:09.454Z,5.30
2022-08-17T23:53:41.860Z,4.67
2022-08-17T23:56:11.802Z,5.30
2022-08-17T23:58:42.147Z,4.70
